Time,TemperatureF,DewpointF,PressureIn,WindDirection,WindDirectionDegrees,WindSpeedMPH,WindSpeedGustMPH,Humidity,HourlyPrecipIn,Conditions,Clouds,dailyrainin,SoftwareType,DateUTC
2013-02-19 00:00:00,37.3,24.7,30.23,NW,307,1.0,2.0,60,0.00,,,0.00,VWS V14.01,2013-02-19 05:00:00,
2013-02-19 00:01:00,37.3,25.1,30.23,NW,307,2.0,3.0,61,0.00,,,0.00,VWS V14.01,2013-02-19 05:01:00,
2013-02-19 00:06:00,36.9,25.1,30.22,NW,307,0.0,3.0,62,0.00,,,0.00,VWS V14.01,2013-02-19 05:06:00,
2013-02-19 00:11:00,36.8,25.0,30.22,NW,307,0.0,3.0,62,0.00,,,0.00,VWS V14.01,2013-02-19 05:11:00,
2013-02-19 00:16:00,36.8,25.0,30.22,NW,307,0.0,3.0,62,0.00,,,0.00,VWS V14.01,2013-02-19 05:16:00,
2013-02-19 00:21:00,36.7,25.3,30.22,NW,307,0.0,3.0,63,0.00,,,0.00,VWS V14.01,2013-02-19 05:21:00,
2013-02-19 00:26:00,36.9,25.1,30.22,NW,307,0.0,3.0,62,0.00,,,0.00,VWS V14.01,2013-02-19 05:26:00,
2013-02-19 00:30:00,37.2,25.0,30.21,NW,307,1.0,3.0,61,0.00,,,0.00,VWS V15.00,2013-02-19 05:30:00,
2013-02-19 00:31:00,37.3,25.1,30.21,NW,307,0.0,1.0,61,0.00,,,0.00,VWS V14.01,2013-02-19 05:31:00,
2013-02-19 00:36:00,37.8,25.2,30.21,NW,317,0.0,2.0,60,0.00,,,0.00,VWS V14.01,2013-02-19 05:36:00,
2013-02-19 00:41:00,38.1,25.9,30.21,WNW,292,2.0,3.0,61,0.00,,,0.00,VWS V14.01,2013-02-19 05:41:00,
2013-02-19 00:46:00,38.7,24.8,30.20,East,85,0.0,5.0,57,0.00,,,0.00,VWS V14.01,2013-02-19 05:46:00,
2013-02-19 00:51:00,39.1,25.6,30.20,NE,49,0.0,5.0,58,0.00,,,0.00,VWS V14.01,2013-02-19 05:51:00,
2013-02-19 00:56:00,38.7,26.4,30.20,ESE,116,0.0,5.0,61,0.00,,,0.00,VWS V14.01,2013-02-19 05:56:00,
2013-02-19 01:00:00,38.5,25.4,30.20,ESE,116,0.0,5.0,59,0.00,,,0.00,VWS V15.00,2013-02-19 06:00:00,
2013-02-19 01:01:00,38.6,25.1,30.20,ESE,116,0.0,1.0,58,0.00,,,0.00,VWS V14.01,2013-02-19 06:01:00,
2013-02-19 01:06:00,38.5,26.2,30.20,ESE,116,0.0,1.0,61,0.00,,,0.00,VWS V14.01,2013-02-19 06:06:00,
2013-02-19 01:11:00,38.3,25.6,30.18,WSW,255,0.0,4.0,60,0.00,,,0.00,VWS V14.01,2013-02-19 06:11:00,
2013-02-19 01:16:00,38.5,25.8,30.18,South,182,0.0,4.0,60,0.00,,,0.00,VWS V14.01,2013-02-19 06:16:00,
2013-02-19 01:21:00,38.5,25.8,30.18,South,182,0.0,4.0,60,0.00,,,0.00,VWS V14.01,2013-02-19 06:21:00,
2013-02-19 01:26:00,38.4,26.1,30.18,South,183,0.0,4.0,61,0.00,,,0.00,VWS V14.01,2013-02-19 06:26:00,
2013-02-19 01:30:00,38.3,26.0,30.18,South,183,0.0,4.0,61,0.00,,,0.00,VWS V15.00,2013-02-19 06:30:00,
2013-02-19 01:31:00,38.2,26.3,30.18,South,183,0.0,0.0,62,0.00,,,0.00,VWS V14.01,2013-02-19 06:31:00,
2013-02-19 01:36:00,38.0,26.5,30.18,South,182,0.0,0.0,63,0.00,,,0.00,VWS V14.01,2013-02-19 06:36:00,
2013-02-19 01:41:00,37.8,26.7,30.17,SSE,153,0.0,1.0,64,0.00,,,0.00,VWS V14.01,2013-02-19 06:41:00,
2013-02-19 01:46:00,37.6,26.2,30.17,SSE,153,0.0,3.0,63,0.00,,,0.00,VWS V14.01,2013-02-19 06:46:00,
2013-02-19 01:51:00,37.3,26.3,30.15,NNW,341,2.0,3.0,64,0.00,,,0.00,VWS V14.01,2013-02-19 06:51:00,
2013-02-19 01:56:00,37.1,26.1,30.14,NNW,341,0.0,3.0,64,0.00,,,0.00,VWS V14.01,2013-02-19 06:56:00,
2013-02-19 02:00:00,37.1,25.7,30.14,NNE,22,1.0,3.0,63,0.00,,,0.00,VWS V15.00,2013-02-19 07:00:00,
2013-02-19 02:01:00,37.3,25.5,30.14,ENE,61,3.0,3.0,62,0.00,,,0.00,VWS V14.01,2013-02-19 07:01:00,
2013-02-19 02:06:00,38.3,24.8,30.14,NNE,26,0.0,6.0,58,0.00,,,0.00,VWS V14.01,2013-02-19 07:06:00,
2013-02-19 02:11:00,38.8,25.3,30.14,NNE,24,0.0,6.0,58,0.00,,,0.00,VWS V14.01,2013-02-19 07:11:00,
2013-02-19 02:16:00,38.8,25.3,30.13,NNE,15,0.0,6.0,58,0.00,,,0.00,VWS V14.01,2013-02-19 07:16:00,
2013-02-19 02:21:00,38.9,25.0,30.15,NW,309,0.0,6.0,57,0.00,,,0.00,VWS V14.01,2013-02-19 07:21:00,
2013-02-19 02:26:00,38.8,24.9,30.15,NW,317,4.0,6.0,57,0.00,,,0.00,VWS V14.01,2013-02-19 07:26:00,
2013-02-19 02:30:00,38.8,24.0,30.14,NNW,338,1.0,6.0,55,0.00,,,0.00,VWS V15.00,2013-02-19 07:30:00,
2013-02-19 02:31:00,39.0,23.8,30.14,NNW,337,0.0,4.0,54,0.00,,,0.00,VWS V14.01,2013-02-19 07:31:00,
2013-02-19 02:36:00,39.5,23.8,30.14,NW,309,2.0,7.0,53,0.00,,,0.00,VWS V14.01,2013-02-19 07:36:00,
2013-02-19 02:41:00,39.9,24.6,30.13,SSW,210,0.0,8.0,54,0.00,,,0.00,VWS V14.01,2013-02-19 07:41:00,
2013-02-19 02:46:00,39.7,24.0,30.14,SSE,159,0.0,8.0,53,0.00,,,0.00,VWS V14.01,2013-02-19 07:46:00,
2013-02-19 02:51:00,39.7,24.4,30.14,WNW,302,0.0,8.0,54,0.00,,,0.00,VWS V14.01,2013-02-19 07:51:00,
2013-02-19 02:56:00,39.7,24.4,30.13,South,190,0.0,8.0,54,0.00,,,0.00,VWS V14.01,2013-02-19 07:56:00,
2013-02-19 03:00:00,39.5,24.2,30.13,South,190,0.0,8.0,54,0.00,,,0.00,VWS V15.00,2013-02-19 08:00:00,
2013-02-19 03:01:00,39.5,23.8,30.13,South,190,0.0,2.0,53,0.00,,,0.00,VWS V14.01,2013-02-19 08:01:00,
2013-02-19 03:06:00,39.6,23.9,30.13,West,267,1.0,5.0,53,0.00,,,0.00,VWS V14.01,2013-02-19 08:06:00,
2013-02-19 03:11:00,39.7,23.5,30.12,NW,317,0.0,5.0,52,0.00,,,0.00,VWS V14.01,2013-02-19 08:11:00,
2013-02-19 03:16:00,39.6,23.9,30.12,NW,317,0.0,5.0,53,0.00,,,0.00,VWS V14.01,2013-02-19 08:16:00,
2013-02-19 03:21:00,39.5,23.8,30.12,NW,317,0.0,5.0,53,0.00,,,0.00,VWS V14.01,2013-02-19 08:21:00,
2013-02-19 03:26:00,39.3,24.1,30.13,NW,317,0.0,5.0,54,0.00,,,0.00,VWS V14.01,2013-02-19 08:26:00,
2013-02-19 03:30:00,39.2,24.0,30.13,NW,317,0.0,5.0,54,0.00,,,0.00,VWS V15.00,2013-02-19 08:30:00,
2013-02-19 03:31:00,39.2,24.8,30.14,NW,317,0.0,0.0,56,0.00,,,0.00,VWS V14.01,2013-02-19 08:31:00,
2013-02-19 03:36:00,39.1,24.3,30.14,NW,317,0.0,0.0,55,0.00,,,0.00,VWS V14.01,2013-02-19 08:36:00,
2013-02-19 03:41:00,39.0,23.8,30.14,SSW,213,0.0,4.0,54,0.00,,,0.00,VWS V14.01,2013-02-19 08:41:00,
2013-02-19 03:46:00,39.3,22.7,30.14,WSW,237,1.0,9.0,51,0.00,,,0.00,VWS V14.01,2013-02-19 08:46:00,
2013-02-19 03:51:00,39.7,23.5,30.14,SW,219,0.0,9.0,52,0.00,,,0.00,VWS V14.01,2013-02-19 08:51:00,
2013-02-19 03:56:00,39.6,23.4,30.13,WNW,288,0.0,9.0,52,0.00,,,0.00,VWS V14.01,2013-02-19 08:56:00,
2013-02-19 04:00:00,39.5,23.8,30.14,NW,315,1.0,9.0,53,0.00,,,0.00,VWS V15.00,2013-02-19 09:00:00,
2013-02-19 04:01:00,39.5,23.8,30.14,NW,309,0.0,2.0,53,0.00,,,0.00,VWS V14.01,2013-02-19 09:01:00,
2013-02-19 04:06:00,39.3,23.6,30.14,West,274,0.0,3.0,53,0.00,,,0.00,VWS V14.01,2013-02-19 09:06:00,
2013-02-19 04:11:00,39.2,24.0,30.12,SW,221,0.0,3.0,54,0.00,,,0.00,VWS V14.01,2013-02-19 09:11:00,
2013-02-19 04:16:00,39.0,23.8,30.12,NW,320,1.0,3.0,54,0.00,,,0.00,VWS V14.01,2013-02-19 09:16:00,
2013-02-19 04:21:00,38.9,24.1,30.12,NNW,327,1.0,3.0,55,0.00,,,0.00,VWS V14.01,2013-02-19 09:21:00,
2013-02-19 04:26:00,38.9,24.1,30.11,NNW,327,0.0,3.0,55,0.00,,,0.00,VWS V14.01,2013-02-19 09:26:00,
2013-02-19 04:30:00,38.8,24.5,30.11,WSW,245,3.0,4.0,56,0.00,,,0.00,VWS V14.01,2013-02-19 09:30:00,
2013-02-19 04:35:00,38.7,24.4,30.11,WNW,288,0.0,5.0,56,0.00,,,0.00,VWS V14.01,2013-02-19 09:35:00,
2013-02-19 04:40:00,38.7,24.4,30.10,WNW,296,0.0,6.0,56,0.00,,,0.00,VWS V14.01,2013-02-19 09:40:00,
2013-02-19 04:45:00,38.8,24.9,30.10,NNE,26,1.0,6.0,57,0.00,,,0.00,VWS V14.01,2013-02-19 09:45:00,
2013-02-19 04:50:00,38.8,24.9,30.10,NW,314,0.0,6.0,57,0.00,,,0.00,VWS V14.01,2013-02-19 09:50:00,
2013-02-19 04:55:00,38.8,24.9,30.11,NW,311,0.0,6.0,57,0.00,,,0.00,VWS V14.01,2013-02-19 09:55:00,
2013-02-19 05:00:00,38.8,25.3,30.11,NW,311,0.0,0.0,58,0.00,,,0.00,VWS V14.01,2013-02-19 10:00:00,
2013-02-19 05:05:00,38.8,25.3,30.11,SSW,198,2.0,4.0,58,0.00,,,0.00,VWS V14.01,2013-02-19 10:05:00,
2013-02-19 05:10:00,38.8,25.7,30.12,SSW,198,0.0,4.0,59,0.00,,,0.00,VWS V14.01,2013-02-19 10:10:00,
2013-02-19 05:15:00,38.8,25.7,30.11,South,190,0.0,4.0,59,0.00,,,0.00,VWS V14.01,2013-02-19 10:15:00,
2013-02-19 05:20:00,38.8,25.7,30.11,NW,321,0.0,5.0,59,0.00,,,0.00,VWS V14.01,2013-02-19 10:20:00,
2013-02-19 05:25:00,38.8,25.7,30.11,SSW,201,0.0,5.0,59,0.00,,,0.00,VWS V14.01,2013-02-19 10:25:00,
2013-02-19 05:30:00,38.9,25.8,30.11,WNW,303,2.0,4.0,59,0.00,,,0.00,VWS V14.01,2013-02-19 10:30:00,
2013-02-19 05:35:00,39.1,26.8,30.12,West,275,2.0,9.0,61,0.00,,,0.00,VWS V14.01,2013-02-19 10:35:00,
2013-02-19 05:40:00,39.1,26.8,30.12,West,279,3.0,9.0,61,0.00,,,0.00,VWS V14.01,2013-02-19 10:40:00,
2013-02-19 05:45:00,39.1,28.7,30.12,West,277,1.0,9.0,66,0.00,,,0.00,VWS V14.01,2013-02-19 10:45:00,
2013-02-19 05:50:00,38.4,30.5,30.12,South,190,2.0,9.0,73,0.00,,,0.00,VWS V14.01,2013-02-19 10:50:00,
2013-02-19 05:55:00,37.3,31.1,30.12,NNW,327,2.0,9.0,78,0.00,,,0.00,VWS V14.01,2013-02-19 10:55:00,
2013-02-19 06:00:00,36.3,31.0,30.12,WNW,283,0.0,1.0,81,0.00,,,0.00,VWS V14.01,2013-02-19 11:00:00,
2013-02-19 06:05:00,35.5,30.9,30.11,WNW,283,0.0,1.0,83,0.00,,,0.00,VWS V14.01,2013-02-19 11:05:00,
2013-02-19 06:10:00,34.9,30.9,30.11,NNW,343,3.0,3.0,85,0.00,,,0.00,VWS V14.01,2013-02-19 11:10:00,
2013-02-19 06:15:00,34.4,30.6,30.10,North,355,0.0,3.0,86,0.00,,,0.00,VWS V14.01,2013-02-19 11:15:00,
2013-02-19 06:20:00,34.1,30.6,30.09,North,355,0.0,3.0,87,0.00,,,0.00,VWS V14.01,2013-02-19 11:20:00,
2013-02-19 06:25:00,34.0,30.8,30.09,North,355,0.0,3.0,88,0.00,,,0.00,VWS V14.01,2013-02-19 11:25:00,
2013-02-19 06:30:00,33.9,31.0,30.10,North,355,0.0,0.0,89,0.00,,,0.00,VWS V14.01,2013-02-19 11:30:00,
2013-02-19 06:35:00,33.9,31.0,30.10,WSW,249,2.0,2.0,89,0.00,,,0.00,VWS V14.01,2013-02-19 11:35:00,
2013-02-19 06:40:00,34.0,31.4,30.10,West,262,0.0,2.0,90,0.00,,,0.00,VWS V14.01,2013-02-19 11:40:00,
2013-02-19 06:45:00,34.1,31.5,30.10,West,263,0.0,2.0,90,0.00,,,0.00,VWS V14.01,2013-02-19 11:45:00,
2013-02-19 06:50:00,34.1,31.5,30.09,West,263,0.0,2.0,90,0.00,,,0.00,VWS V14.01,2013-02-19 11:50:00,
2013-02-19 06:55:00,34.2,31.6,30.09,South,170,0.0,2.0,90,0.01,,,0.01,VWS V14.01,2013-02-19 11:55:00,
2013-02-19 07:00:00,34.2,31.9,30.08,WNW,290,2.0,3.0,91,0.01,,,0.01,VWS V14.01,2013-02-19 12:00:00,
2013-02-19 07:05:00,34.3,32.0,30.08,WNW,295,0.0,3.0,91,0.02,,,0.02,VWS V14.01,2013-02-19 12:05:00,
2013-02-19 07:10:00,34.4,32.0,30.08,WNW,295,0.0,3.0,91,0.02,,,0.02,VWS V14.01,2013-02-19 12:10:00,
2013-02-19 07:15:00,34.5,32.2,30.08,NW,306,0.0,3.0,91,0.02,,,0.02,VWS V14.01,2013-02-19 12:15:00,
2013-02-19 07:20:00,34.8,32.5,30.07,WNW,300,0.0,3.0,91,0.03,,,0.03,VWS V14.01,2013-02-19 12:20:00,
2013-02-19 07:25:00,34.9,32.5,30.07,WNW,301,0.0,3.0,91,0.03,,,0.03,VWS V14.01,2013-02-19 12:25:00,
2013-02-19 07:30:00,35.1,32.7,30.07,NE,52,0.0,1.0,91,0.03,,,0.03,VWS V14.01,2013-02-19 12:30:00,
2013-02-19 07:35:00,35.3,32.9,30.06,East,86,0.0,2.0,91,0.04,,,0.04,VWS V14.01,2013-02-19 12:35:00,
2013-02-19 07:40:00,35.3,32.9,30.06,East,86,0.0,2.0,91,0.04,,,0.04,VWS V14.01,2013-02-19 12:40:00,
2013-02-19 07:45:00,35.3,32.9,30.06,East,86,0.0,2.0,91,0.04,,,0.04,VWS V14.01,2013-02-19 12:45:00,
2013-02-19 07:50:00,35.4,33.0,30.05,East,86,0.0,2.0,91,0.04,,,0.04,VWS V14.01,2013-02-19 12:50:00,
2013-02-19 07:55:00,35.6,33.5,30.06,WNW,301,3.0,4.0,92,0.04,,,0.04,VWS V14.01,2013-02-19 12:55:00,
2013-02-19 08:00:00,35.9,33.5,30.04,SW,217,4.0,4.0,91,0.04,,,0.05,VWS V14.01,2013-02-19 13:00:00,
2013-02-19 08:05:00,36.0,33.6,30.04,SE,145,0.0,7.0,91,0.04,,,0.05,VWS V14.01,2013-02-19 13:05:00,
2013-02-19 08:10:00,36.1,33.7,30.04,WNW,285,0.0,7.0,91,0.04,,,0.05,VWS V14.01,2013-02-19 13:10:00,
2013-02-19 08:15:00,36.6,34.2,30.03,NW,313,0.0,7.0,91,0.04,,,0.05,VWS V14.01,2013-02-19 13:15:00,
2013-02-19 08:20:00,36.9,34.5,30.03,NW,317,2.0,7.0,91,0.05,,,0.06,VWS V14.01,2013-02-19 13:20:00,
2013-02-19 08:25:00,37.1,34.4,30.02,NNW,327,1.0,7.0,90,0.05,,,0.06,VWS V14.01,2013-02-19 13:25:00,
2013-02-19 08:30:00,37.2,34.5,30.02,NW,317,0.0,2.0,90,0.03,,,0.06,VWS V14.01,2013-02-19 13:30:00,
2013-02-19 08:35:00,37.5,34.6,30.02,North,5,0.0,4.0,89,0.03,,,0.06,VWS V14.01,2013-02-19 13:35:00,
2013-02-19 08:40:00,37.8,34.9,30.02,NNW,327,2.0,5.0,89,0.03,,,0.06,VWS V14.01,2013-02-19 13:40:00,
2013-02-19 08:45:00,38.0,35.0,30.02,WNW,285,0.0,5.0,89,0.03,,,0.06,VWS V14.01,2013-02-19 13:45:00,
2013-02-19 08:50:00,38.3,35.3,30.01,WSW,250,0.0,5.0,89,0.03,,,0.06,VWS V14.01,2013-02-19 13:50:00,
2013-02-19 08:55:00,38.5,35.5,30.01,NW,326,0.0,5.0,89,0.03,,,0.06,VWS V14.01,2013-02-19 13:55:00,
2013-02-19 09:00:00,38.8,35.8,30.01,NW,321,3.0,4.0,89,0.01,,,0.06,VWS V14.01,2013-02-19 14:00:00,
2013-02-19 09:05:00,39.3,36.0,30.01,WNW,287,0.0,4.0,88,0.01,,,0.06,VWS V14.01,2013-02-19 14:05:00,
2013-02-19 09:10:00,39.7,36.2,30.00,NW,313,0.0,4.0,87,0.01,,,0.06,VWS V14.01,2013-02-19 14:10:00,
2013-02-19 09:15:00,39.9,36.1,30.01,NW,323,1.0,4.0,86,0.01,,,0.06,VWS V14.01,2013-02-19 14:15:00,
2013-02-19 09:20:00,40.3,36.8,30.00,SW,225,2.0,4.0,87,0.01,,,0.06,VWS V14.01,2013-02-19 14:20:00,
2013-02-19 09:25:00,40.7,36.8,30.00,West,273,1.0,4.0,86,0.01,,,0.06,VWS V14.01,2013-02-19 14:25:00,
2013-02-19 09:30:00,41.5,37.6,30.00,SW,217,0.0,3.0,86,0.00,,,0.06,VWS V14.01,2013-02-19 14:30:00,
2013-02-19 09:35:00,42.1,37.9,30.00,NNE,28,0.0,5.0,85,0.00,,,0.06,VWS V14.01,2013-02-19 14:35:00,
2013-02-19 09:40:00,42.5,38.0,30.00,SW,236,2.0,6.0,84,0.00,,,0.06,VWS V14.01,2013-02-19 14:40:00,
2013-02-19 09:45:00,42.7,37.9,30.00,SW,231,3.0,7.0,83,0.00,,,0.06,VWS V14.01,2013-02-19 14:45:00,
2013-02-19 09:50:00,42.9,37.8,30.00,WNW,288,0.0,7.0,82,0.00,,,0.06,VWS V14.01,2013-02-19 14:50:00,
2013-02-19 09:55:00,42.6,37.5,30.00,West,259,2.0,8.0,82,0.00,,,0.06,VWS V14.01,2013-02-19 14:55:00,
2013-02-19 10:00:00,42.3,37.2,30.00,West,271,1.0,5.0,82,0.00,,,0.06,VWS V14.01,2013-02-19 15:00:00,
2013-02-19 10:05:00,42.1,37.0,30.00,NNW,346,3.0,6.0,82,0.00,,,0.06,VWS V14.01,2013-02-19 15:05:00,
2013-02-19 10:10:00,42.0,37.5,30.00,WNW,298,2.0,7.0,84,0.00,,,0.06,VWS V14.01,2013-02-19 15:10:00,
2013-02-19 10:15:00,41.8,37.3,30.00,WNW,294,4.0,7.0,84,0.00,,,0.06,VWS V14.01,2013-02-19 15:15:00,
2013-02-19 10:20:00,41.7,37.5,30.00,West,270,1.0,7.0,85,0.00,,,0.06,VWS V14.01,2013-02-19 15:20:00,
2013-02-19 10:25:00,41.7,37.5,29.99,WSW,245,0.0,7.0,85,0.00,,,0.06,VWS V14.01,2013-02-19 15:25:00,
2013-02-19 10:30:00,42.0,37.8,29.99,NW,309,1.0,1.0,85,0.00,,,0.06,VWS V14.01,2013-02-19 15:30:00,
2013-02-19 10:35:00,42.2,37.7,29.99,NW,311,3.0,5.0,84,0.00,,,0.06,VWS V14.01,2013-02-19 15:35:00,
2013-02-19 10:40:00,42.6,38.1,29.99,WSW,254,2.0,5.0,84,0.00,,,0.06,VWS V14.01,2013-02-19 15:40:00,
2013-02-19 10:45:00,42.7,38.2,29.99,SW,227,4.0,6.0,84,0.00,,,0.06,VWS V14.01,2013-02-19 15:45:00,
2013-02-19 10:50:00,42.9,38.4,29.99,SW,229,1.0,6.0,84,0.00,,,0.06,VWS V14.01,2013-02-19 15:50:00,
2013-02-19 10:55:00,43.4,38.9,29.99,West,265,1.0,6.0,84,0.00,,,0.06,VWS V14.01,2013-02-19 15:55:00,
2013-02-19 11:00:00,43.6,38.5,29.99,SW,227,2.0,6.0,82,0.00,,,0.06,VWS V14.01,2013-02-19 16:00:00,
2013-02-19 11:05:00,43.5,38.4,29.99,NW,312,2.0,7.0,82,0.00,,,0.06,VWS V14.01,2013-02-19 16:05:00,
2013-02-19 11:10:00,43.8,38.7,29.98,West,265,1.0,7.0,82,0.00,,,0.06,VWS V14.01,2013-02-19 16:10:00,
2013-02-19 11:15:00,43.9,38.8,29.98,WSW,247,2.0,7.0,82,0.00,,,0.06,VWS V14.01,2013-02-19 16:15:00,
2013-02-19 11:20:00,44.1,39.0,29.98,WSW,240,1.0,7.0,82,0.00,,,0.06,VWS V14.01,2013-02-19 16:20:00,
2013-02-19 11:25:00,44.6,39.8,29.98,SSW,205,2.0,7.0,83,0.00,,,0.06,VWS V14.01,2013-02-19 16:25:00,
2013-02-19 11:30:00,45.0,39.5,29.97,South,182,3.0,4.0,81,0.00,,,0.06,VWS V14.01,2013-02-19 16:30:00,
2013-02-19 11:35:00,45.4,39.9,29.97,SW,229,3.0,5.0,81,0.00,,,0.06,VWS V14.01,2013-02-19 16:35:00,
2013-02-19 11:40:00,45.8,39.7,29.96,SW,227,7.0,7.0,79,0.00,,,0.06,VWS V14.01,2013-02-19 16:40:00,
2013-02-19 11:45:00,46.0,39.9,29.96,SSW,204,3.0,11.0,79,0.00,,,0.06,VWS V14.01,2013-02-19 16:45:00,
2013-02-19 11:50:00,46.4,39.9,29.96,WNW,293,6.0,11.0,78,0.00,,,0.06,VWS V14.01,2013-02-19 16:50:00,
2013-02-19 11:55:00,46.9,40.4,29.95,West,274,2.0,11.0,78,0.00,,,0.06,VWS V14.01,2013-02-19 16:55:00,
2013-02-19 12:00:00,47.3,40.1,29.95,SSW,209,5.0,6.0,76,0.00,,,0.06,VWS V14.01,2013-02-19 17:00:00,
2013-02-19 12:05:00,47.6,40.1,29.94,SSW,211,5.0,9.0,75,0.00,,,0.06,VWS V14.01,2013-02-19 17:05:00,
2013-02-19 12:10:00,48.0,40.5,29.94,SW,232,4.0,14.0,75,0.00,,,0.06,VWS V14.01,2013-02-19 17:10:00,
2013-02-19 12:15:00,48.5,40.6,29.94,SSW,211,6.0,14.0,74,0.00,,,0.06,VWS V14.01,2013-02-19 17:15:00,
2013-02-19 12:20:00,49.2,40.9,29.94,SW,226,8.0,14.0,73,0.00,,,0.06,VWS V14.01,2013-02-19 17:20:00,
2013-02-19 12:25:00,49.3,40.3,29.93,WSW,237,0.0,14.0,71,0.00,,,0.06,VWS V14.01,2013-02-19 17:25:00,
2013-02-19 12:30:00,49.2,40.6,29.93,SW,232,5.0,5.0,72,0.00,,,0.06,VWS V14.01,2013-02-19 17:30:00,
2013-02-19 12:35:00,49.5,40.9,29.93,SSW,200,5.0,9.0,72,0.00,,,0.06,VWS V14.01,2013-02-19 17:35:00,
2013-02-19 12:40:00,49.4,40.0,29.93,SSW,192,1.0,11.0,70,0.00,,,0.06,VWS V14.01,2013-02-19 17:40:00,
2013-02-19 12:45:00,49.9,40.5,29.92,SW,228,0.0,11.0,70,0.00,,,0.06,VWS V14.01,2013-02-19 17:45:00,
2013-02-19 12:50:00,50.0,39.5,29.92,SSW,196,4.0,11.0,67,0.00,,,0.06,VWS V14.01,2013-02-19 17:50:00,
2013-02-19 12:55:00,49.4,38.5,29.92,NNW,344,3.0,11.0,66,0.00,,,0.06,VWS V14.01,2013-02-19 17:55:00,
2013-02-19 13:00:00,49.1,38.6,29.91,SW,226,6.0,7.0,67,0.00,,,0.06,VWS V14.01,2013-02-19 18:00:00,
2013-02-19 13:05:00,49.0,38.2,29.91,WSW,256,2.0,12.0,66,0.00,,,0.06,VWS V14.01,2013-02-19 18:05:00,
2013-02-19 13:10:00,49.4,38.9,29.91,North,355,3.0,12.0,67,0.00,,,0.06,VWS V14.01,2013-02-19 18:10:00,
2013-02-19 13:15:00,49.6,37.9,29.90,SSW,205,7.0,12.0,64,0.00,,,0.06,VWS V14.01,2013-02-19 18:15:00,
2013-02-19 13:20:00,50.3,38.6,29.90,WSW,244,7.0,12.0,64,0.00,,,0.06,VWS V14.01,2013-02-19 18:20:00,
2013-02-19 13:25:00,50.7,36.9,29.90,West,261,4.0,12.0,59,0.00,,,0.06,VWS V14.01,2013-02-19 18:25:00,
2013-02-19 13:30:00,50.6,37.2,29.90,SW,221,9.0,10.0,60,0.00,,,0.06,VWS V14.01,2013-02-19 18:30:00,
2013-02-19 13:35:00,50.9,37.1,29.90,West,271,2.0,10.0,59,0.00,,,0.06,VWS V14.01,2013-02-19 18:35:00,
2013-02-19 13:40:00,51.7,36.1,29.89,West,263,3.0,12.0,55,0.00,,,0.06,VWS V14.01,2013-02-19 18:40:00,
2013-02-19 13:45:00,52.3,37.5,29.89,NW,310,3.0,12.0,57,0.00,,,0.06,VWS V14.01,2013-02-19 18:45:00,
2013-02-19 13:50:00,52.9,37.2,29.88,SE,134,0.0,12.0,55,0.00,,,0.06,VWS V14.01,2013-02-19 18:50:00,
2013-02-19 13:55:00,53.1,36.9,29.88,West,263,2.0,12.0,54,0.00,,,0.06,VWS V14.01,2013-02-19 18:55:00,
2013-02-19 14:00:00,52.7,36.5,29.88,West,274,2.0,8.0,54,0.00,,,0.06,VWS V14.01,2013-02-19 19:00:00,
2013-02-19 14:05:00,52.1,35.5,29.88,NW,315,4.0,10.0,53,0.00,,,0.06,VWS V14.01,2013-02-19 19:05:00,
2013-02-19 14:10:00,51.9,36.3,29.88,NW,311,3.0,10.0,55,0.00,,,0.06,VWS V14.01,2013-02-19 19:10:00,
2013-02-19 14:15:00,51.8,35.7,29.88,NW,318,6.0,11.0,54,0.00,,,0.06,VWS V14.01,2013-02-19 19:15:00,
2013-02-19 14:20:00,51.1,34.6,29.88,NW,310,0.0,11.0,53,0.00,,,0.06,VWS V14.01,2013-02-19 19:20:00,
2013-02-19 14:25:00,50.6,34.6,29.89,WNW,302,3.0,11.0,54,0.00,,,0.06,VWS V14.01,2013-02-19 19:25:00,
2013-02-19 14:30:00,50.5,33.5,29.88,SSW,198,5.0,11.0,52,0.00,,,0.06,VWS V14.01,2013-02-19 19:30:00,
2013-02-19 14:35:00,50.6,35.5,29.88,West,261,6.0,11.0,56,0.00,,,0.06,VWS V14.01,2013-02-19 19:35:00,
2013-02-19 14:40:00,51.3,35.2,29.88,West,274,3.0,11.0,54,0.00,,,0.06,VWS V14.01,2013-02-19 19:40:00,
2013-02-19 14:45:00,51.5,36.3,29.88,North,5,4.0,11.0,56,0.00,,,0.06,VWS V14.01,2013-02-19 19:45:00,
2013-02-19 14:50:00,51.7,37.0,29.89,NW,325,7.0,11.0,57,0.00,,,0.06,VWS V14.01,2013-02-19 19:50:00,
2013-02-19 14:55:00,51.5,36.8,29.89,ENE,60,5.0,11.0,57,0.00,,,0.06,VWS V14.01,2013-02-19 19:55:00,
2013-02-19 15:00:00,50.8,36.1,29.88,North,349,6.0,12.0,57,0.00,,,0.06,VWS V14.01,2013-02-19 20:00:00,
2013-02-19 15:05:00,50.6,35.9,29.89,WSW,246,2.0,12.0,57,0.00,,,0.06,VWS V14.01,2013-02-19 20:05:00,
2013-02-19 15:10:00,50.3,35.2,29.88,WSW,244,4.0,12.0,56,0.00,,,0.06,VWS V14.01,2013-02-19 20:10:00,
2013-02-19 15:15:00,50.2,35.6,29.89,WSW,239,3.0,12.0,57,0.00,,,0.06,VWS V14.01,2013-02-19 20:15:00,
2013-02-19 15:20:00,50.4,36.2,29.89,SSW,207,0.0,12.0,58,0.00,,,0.06,VWS V14.01,2013-02-19 20:20:00,
2013-02-19 15:25:00,50.6,34.6,29.89,NNW,346,1.0,14.0,54,0.00,,,0.06,VWS V14.01,2013-02-19 20:25:00,
2013-02-19 15:30:00,50.1,33.7,29.88,West,264,6.0,8.0,53,0.00,,,0.06,VWS V14.01,2013-02-19 20:30:00,
2013-02-19 15:35:00,49.9,33.5,29.89,WNW,300,1.0,8.0,53,0.00,,,0.06,VWS V14.01,2013-02-19 20:35:00,
2013-02-19 15:40:00,49.7,32.8,29.89,WNW,294,3.0,10.0,52,0.00,,,0.06,VWS V14.01,2013-02-19 20:40:00,
2013-02-19 15:45:00,49.8,32.9,29.89,North,360,7.0,14.0,52,0.00,,,0.06,VWS V14.01,2013-02-19 20:45:00,
2013-02-19 15:50:00,49.6,32.7,29.89,West,269,2.0,14.0,52,0.00,,,0.06,VWS V14.01,2013-02-19 20:50:00,
2013-02-19 15:55:00,49.6,32.2,29.89,SW,218,2.0,14.0,51,0.00,,,0.06,VWS V14.01,2013-02-19 20:55:00,
2013-02-19 16:00:00,49.6,32.2,29.89,SW,229,6.0,6.0,51,0.00,,,0.06,VWS V14.01,2013-02-19 21:00:00,
2013-02-19 16:05:00,49.5,31.6,29.89,SSW,192,2.0,10.0,50,0.00,,,0.06,VWS V14.01,2013-02-19 21:05:00,
2013-02-19 16:10:00,49.5,31.6,29.90,West,263,5.0,10.0,50,0.00,,,0.06,VWS V14.01,2013-02-19 21:10:00,
2013-02-19 16:15:00,49.3,30.5,29.90,SW,218,6.0,10.0,48,0.00,,,0.06,VWS V14.01,2013-02-19 21:15:00,
2013-02-19 16:20:00,48.7,30.4,29.90,NW,312,0.0,10.0,49,0.00,,,0.06,VWS V14.01,2013-02-19 21:20:00,
2013-02-19 16:25:00,48.3,29.5,29.90,NW,309,3.0,10.0,48,0.00,,,0.06,VWS V14.01,2013-02-19 21:25:00,
2013-02-19 16:30:00,48.1,29.4,29.91,NW,323,3.0,8.0,48,0.00,,,0.06,VWS V14.01,2013-02-19 21:30:00,
2013-02-19 16:35:00,48.0,28.8,29.91,WSW,246,7.0,11.0,47,0.00,,,0.06,VWS V14.01,2013-02-19 21:35:00,
2013-02-19 16:40:00,47.6,28.4,29.91,SSW,198,5.0,11.0,47,0.00,,,0.06,VWS V14.01,2013-02-19 21:40:00,
2013-02-19 16:45:00,47.2,28.0,29.91,NW,321,4.0,11.0,47,0.00,,,0.06,VWS V14.01,2013-02-19 21:45:00,
2013-02-19 16:50:00,47.4,28.7,29.91,West,260,5.0,11.0,48,0.00,,,0.06,VWS V14.01,2013-02-19 21:50:00,
2013-02-19 16:55:00,47.3,27.6,29.91,NW,319,4.0,11.0,46,0.00,,,0.06,VWS V14.01,2013-02-19 21:55:00,
2013-02-19 17:00:00,47.1,26.9,29.92,SW,235,3.0,9.0,45,0.00,,,0.06,VWS V14.01,2013-02-19 22:00:00,
2013-02-19 17:05:00,46.9,25.6,29.92,West,267,8.0,11.0,43,0.00,,,0.06,VWS V14.01,2013-02-19 22:05:00,
2013-02-19 17:10:00,46.8,24.9,29.92,NW,316,1.0,16.0,42,0.00,,,0.06,VWS V14.01,2013-02-19 22:10:00,
2013-02-19 17:15:00,46.7,23.7,29.93,NW,325,7.0,16.0,40,0.00,,,0.06,VWS V14.01,2013-02-19 22:15:00,
2013-02-19 17:20:00,46.4,22.8,29.93,NW,324,2.0,16.0,39,0.00,,,0.06,VWS V14.01,2013-02-19 22:20:00,
2013-02-19 17:25:00,46.2,22.0,29.93,West,261,5.0,16.0,38,0.00,,,0.06,VWS V14.01,2013-02-19 22:25:00,
2013-02-19 17:30:00,45.8,21.6,29.94,West,281,7.0,9.0,38,0.00,,,0.06,VWS V14.01,2013-02-19 22:30:00,
2013-02-19 17:35:00,45.3,20.6,29.94,NNW,337,14.0,15.0,37,0.00,,,0.06,VWS V14.01,2013-02-19 22:35:00,
2013-02-19 17:40:00,45.1,19.8,29.94,WNW,300,6.0,15.0,36,0.00,,,0.06,VWS V14.01,2013-02-19 22:40:00,
2013-02-19 17:45:00,44.9,18.9,29.95,NW,304,2.0,15.0,35,0.00,,,0.06,VWS V14.01,2013-02-19 22:45:00,
2013-02-19 17:50:00,44.7,18.8,29.95,WNW,294,3.0,15.0,35,0.00,,,0.06,VWS V14.01,2013-02-19 22:50:00,
2013-02-19 17:55:00,44.3,18.4,29.95,WSW,244,7.0,15.0,35,0.00,,,0.06,VWS V14.01,2013-02-19 22:55:00,
2013-02-19 18:00:00,44.1,18.2,29.95,West,261,5.0,7.0,35,0.00,,,0.06,VWS V14.01,2013-02-19 23:00:00,
2013-02-19 18:05:00,44.0,18.1,29.95,West,279,5.0,10.0,35,0.00,,,0.06,VWS V14.01,2013-02-19 23:05:00,
2013-02-19 18:10:00,43.7,18.5,29.95,WNW,284,4.0,12.0,36,0.00,,,0.06,VWS V14.01,2013-02-19 23:10:00,
2013-02-19 18:15:00,43.5,18.3,29.96,NNW,334,3.0,12.0,36,0.00,,,0.06,VWS V14.01,2013-02-19 23:15:00,
2013-02-19 18:20:00,43.3,17.5,29.96,WNW,297,5.0,18.0,35,0.00,,,0.06,VWS V14.01,2013-02-19 23:20:00,
2013-02-19 18:25:00,43.1,18.0,29.96,West,275,3.0,18.0,36,0.00,,,0.06,VWS V14.01,2013-02-19 23:25:00,
2013-02-19 18:30:00,42.9,17.1,29.97,WNW,293,4.0,8.0,35,0.00,,,0.06,VWS V14.01,2013-02-19 23:30:00,
2013-02-19 18:35:00,42.7,17.0,29.97,WNW,300,3.0,8.0,35,0.00,,,0.06,VWS V14.01,2013-02-19 23:35:00,
2013-02-19 18:40:00,42.5,16.1,29.97,West,279,2.0,15.0,34,0.00,,,0.06,VWS V14.01,2013-02-19 23:40:00,
2013-02-19 18:45:00,42.4,16.7,29.98,NW,308,1.0,15.0,35,0.00,,,0.06,VWS V14.01,2013-02-19 23:45:00,
2013-02-19 18:50:00,42.2,16.5,29.97,NNW,331,2.0,15.0,35,0.00,,,0.06,VWS V14.01,2013-02-19 23:50:00,
2013-02-19 18:55:00,42.0,16.4,29.98,West,275,5.0,15.0,35,0.00,,,0.06,VWS V14.01,2013-02-19 23:55:00,
2013-02-19 19:00:00,41.9,14.9,29.98,West,265,3.0,5.0,33,0.00,,,0.06,VWS V14.01,2013-02-20 00:00:00,
2013-02-19 19:05:00,41.7,14.7,29.98,SSW,196,12.0,20.0,33,0.00,,,0.06,VWS V14.01,2013-02-20 00:05:00,
2013-02-19 19:10:00,41.6,14.6,29.98,WSW,254,4.0,20.0,33,0.00,,,0.06,VWS V14.01,2013-02-20 00:10:00,
2013-02-19 19:15:00,41.5,14.6,29.99,SW,223,8.0,20.0,33,0.00,,,0.06,VWS V14.01,2013-02-20 00:15:00,
2013-02-19 19:20:00,41.4,14.5,29.99,WNW,293,6.0,20.0,33,0.00,,,0.06,VWS V14.01,2013-02-20 00:20:00,
2013-02-19 19:25:00,41.2,14.3,29.99,WSW,250,4.0,20.0,33,0.00,,,0.06,VWS V14.01,2013-02-20 00:25:00,
2013-02-19 19:30:00,41.1,14.9,30.00,WSW,251,7.0,8.0,34,0.00,,,0.06,VWS V14.01,2013-02-20 00:30:00,
2013-02-19 19:35:00,40.8,14.6,29.99,NNW,342,3.0,15.0,34,0.00,,,0.06,VWS V14.01,2013-02-20 00:35:00,
2013-02-19 19:40:00,40.6,15.1,30.00,SW,234,7.0,15.0,35,0.00,,,0.06,VWS V14.01,2013-02-20 00:40:00,
2013-02-19 19:45:00,40.6,14.4,29.99,WSW,254,3.0,15.0,34,0.00,,,0.06,VWS V14.01,2013-02-20 00:45:00,
2013-02-19 19:50:00,40.6,14.4,29.99,NW,311,3.0,15.0,34,0.00,,,0.06,VWS V14.01,2013-02-20 00:50:00,
2013-02-19 19:55:00,40.3,14.8,29.99,SSW,200,3.0,15.0,35,0.00,,,0.06,VWS V14.01,2013-02-20 00:55:00,
2013-02-19 20:00:00,40.2,15.4,30.00,North,355,4.0,4.0,36,0.00,,,0.06,VWS V14.01,2013-02-20 01:00:00,
2013-02-19 20:05:00,40.0,15.2,30.00,WSW,248,3.0,12.0,36,0.00,,,0.06,VWS V14.01,2013-02-20 01:05:00,
2013-02-19 20:10:00,39.8,15.0,29.99,West,270,6.0,12.0,36,0.00,,,0.06,VWS V14.01,2013-02-20 01:10:00,
2013-02-19 20:15:00,39.7,14.9,29.99,West,272,6.0,12.0,36,0.00,,,0.06,VWS V14.01,2013-02-20 01:15:00,
2013-02-19 20:20:00,39.6,15.5,30.00,WSW,240,6.0,12.0,37,0.00,,,0.06,VWS V14.01,2013-02-20 01:20:00,
2013-02-19 20:25:00,39.5,15.4,30.00,WSW,238,7.0,12.0,37,0.00,,,0.06,VWS V14.01,2013-02-20 01:25:00,
2013-02-19 20:30:00,39.3,15.2,30.00,SE,129,1.0,9.0,37,0.00,,,0.06,VWS V14.01,2013-02-20 01:30:00,
2013-02-19 20:35:00,39.3,15.2,30.00,NNW,334,3.0,10.0,37,0.00,,,0.06,VWS V14.01,2013-02-20 01:35:00,
2013-02-19 20:40:00,39.1,14.4,30.00,WSW,240,2.0,16.0,36,0.00,,,0.06,VWS V14.01,2013-02-20 01:40:00,
2013-02-19 20:45:00,39.1,14.4,30.00,WNW,302,10.0,16.0,36,0.00,,,0.06,VWS V14.01,2013-02-20 01:45:00,
2013-02-19 20:50:00,39.0,14.9,30.00,West,265,4.0,17.0,37,0.00,,,0.06,VWS V14.01,2013-02-20 01:50:00,
2013-02-19 20:55:00,38.9,14.9,30.00,NNW,342,1.0,17.0,37,0.00,,,0.06,VWS V14.01,2013-02-20 01:55:00,
2013-02-19 21:00:00,38.7,14.7,30.00,NW,309,1.0,6.0,37,0.00,,,0.06,VWS V14.01,2013-02-20 02:00:00,
2013-02-19 21:05:00,38.6,14.6,30.00,WSW,258,4.0,14.0,37,0.00,,,0.06,VWS V14.01,2013-02-20 02:05:00,
2013-02-19 21:10:00,38.4,14.4,30.01,SSW,198,4.0,14.0,37,0.00,,,0.06,VWS V14.01,2013-02-20 02:10:00,
2013-02-19 21:15:00,38.2,14.2,30.01,NNW,335,4.0,14.0,37,0.00,,,0.06,VWS V14.01,2013-02-20 02:15:00,
2013-02-19 21:20:00,38.0,14.7,30.00,SSW,196,7.0,14.0,38,0.00,,,0.06,VWS V14.01,2013-02-20 02:20:00,
2013-02-19 21:25:00,37.9,14.6,30.01,WSW,252,7.0,14.0,38,0.00,,,0.06,VWS V14.01,2013-02-20 02:25:00,
2013-02-19 21:30:00,37.7,15.0,30.01,SSW,200,4.0,7.0,39,0.00,,,0.06,VWS V14.01,2013-02-20 02:30:00,
2013-02-19 21:35:00,37.7,15.0,30.01,WSW,254,4.0,13.0,39,0.00,,,0.06,VWS V14.01,2013-02-20 02:35:00,
2013-02-19 21:40:00,37.6,15.5,30.01,WSW,250,6.0,13.0,40,0.00,,,0.06,VWS V14.01,2013-02-20 02:40:00,
2013-02-19 21:45:00,37.5,15.4,30.02,SSW,209,3.0,14.0,40,0.00,,,0.06,VWS V14.01,2013-02-20 02:45:00,
2013-02-19 21:50:00,37.4,15.3,30.02,SW,215,6.0,14.0,40,0.00,,,0.06,VWS V14.01,2013-02-20 02:50:00,
2013-02-19 21:55:00,37.2,15.1,30.03,SSW,213,6.0,14.0,40,0.00,,,0.06,VWS V14.01,2013-02-20 02:55:00,
2013-02-19 22:00:00,37.0,15.5,30.02,SW,229,6.0,6.0,41,0.00,,,0.06,VWS V14.01,2013-02-20 03:00:00,
2013-02-19 22:05:00,37.1,15.0,30.02,WSW,256,9.0,19.0,40,0.00,,,0.06,VWS V14.01,2013-02-20 03:05:00,
2013-02-19 22:10:00,36.9,15.4,30.02,SW,234,4.0,19.0,41,0.00,,,0.06,VWS V14.01,2013-02-20 03:10:00,
2013-02-19 22:15:00,36.6,15.7,30.01,SW,219,4.0,19.0,42,0.00,,,0.06,VWS V14.01,2013-02-20 03:15:00,
2013-02-19 22:20:00,36.5,14.5,30.02,North,351,6.0,19.0,40,0.00,,,0.06,VWS V14.01,2013-02-20 03:20:00,
2013-02-19 22:25:00,36.4,15.0,30.02,WNW,289,1.0,19.0,41,0.00,,,0.06,VWS V14.01,2013-02-20 03:25:00,
2013-02-19 22:30:00,36.1,15.2,30.02,SW,229,5.0,10.0,42,0.00,,,0.06,VWS V14.01,2013-02-20 03:30:00,
2013-02-19 22:35:00,36.0,15.1,30.01,NE,37,3.0,12.0,42,0.00,,,0.06,VWS V14.01,2013-02-20 03:35:00,
2013-02-19 22:40:00,35.9,15.6,30.03,NW,306,0.0,12.0,43,0.00,,,0.06,VWS V14.01,2013-02-20 03:40:00,
2013-02-19 22:45:00,35.7,15.4,30.02,WSW,243,12.0,12.0,43,0.00,,,0.06,VWS V14.01,2013-02-20 03:45:00,
2013-02-19 22:50:00,35.7,15.4,30.03,NW,325,1.0,17.0,43,0.00,,,0.06,VWS V14.01,2013-02-20 03:50:00,
2013-02-19 22:55:00,35.4,15.1,30.03,West,262,3.0,17.0,43,0.00,,,0.06,VWS V14.01,2013-02-20 03:55:00,
2013-02-19 23:00:00,35.3,15.6,30.03,WSW,244,5.0,15.0,44,0.00,,,0.06,VWS V14.01,2013-02-20 04:00:00,
2013-02-19 23:05:00,35.2,15.5,30.04,SSW,208,8.0,15.0,44,0.00,,,0.06,VWS V14.01,2013-02-20 04:05:00,
2013-02-19 23:10:00,35.1,14.9,30.03,West,259,5.0,15.0,43,0.00,,,0.06,VWS V14.01,2013-02-20 04:10:00,
2013-02-19 23:15:00,34.9,14.7,30.03,WNW,286,4.0,15.0,43,0.00,,,0.06,VWS V14.01,2013-02-20 04:15:00,
2013-02-19 23:20:00,34.7,15.0,30.03,WSW,237,4.0,15.0,44,0.00,,,0.06,VWS V14.01,2013-02-20 04:20:00,
2013-02-19 23:25:00,34.6,14.9,30.03,SW,230,5.0,16.0,44,0.00,,,0.06,VWS V14.01,2013-02-20 04:25:00,
2013-02-19 23:30:00,34.5,15.4,30.03,WSW,251,6.0,7.0,45,0.00,,,0.06,VWS V14.01,2013-02-20 04:30:00,
2013-02-19 23:35:00,34.2,15.6,30.04,WNW,293,1.0,13.0,46,0.00,,,0.06,VWS V14.01,2013-02-20 04:35:00,
2013-02-19 23:40:00,34.1,15.0,30.04,West,279,1.0,13.0,45,0.00,,,0.06,VWS V14.01,2013-02-20 04:40:00,
2013-02-19 23:45:00,34.0,15.4,30.04,WSW,251,4.0,13.0,46,0.00,,,0.06,VWS V14.01,2013-02-20 04:45:00,
2013-02-19 23:50:00,33.7,15.1,30.04,WSW,237,5.0,13.0,46,0.00,,,0.06,VWS V14.01,2013-02-20 04:50:00,
2013-02-19 23:55:00,33.6,15.5,30.04,WNW,283,2.0,13.0,47,0.00,,,0.06,VWS V14.01,2013-02-20 04:55:00,